Time;durP1;ratioP1;P1;durP2;ratioP2;P2;SDS_P1;SDS_P2;PMS_P1;PMS_P2;Temp;Humidity;BMP_temperature;BMP_pressure;BME280_temperature;BME280_humidity;BME280_pressure;Samples;Min_cycle;Max_cycle;Signal;HPM_P1;HPM_P2
2023/01/25 00:01:24;;;;;;;31.90;20.23;;;2.90;99.90;;;;;;4963718;28;91914;-74
2023/01/25 00:03:52;;;;;;;34.50;21.45;;;2.90;99.90;;;;;;4980054;28;89276;-74
2023/01/25 00:06:19;;;;;;;36.85;22.45;;;2.90;99.90;;;;;;4979677;28;91393;-74
2023/01/25 00:08:50;;;;;;;35.33;20.95;;;2.90;99.90;;;;;;4979730;28;89303;-74
2023/01/25 00:11:18;;;;;;;32.50;20.35;;;3.00;99.90;;;;;;4963782;28;88905;-74
2023/01/25 00:13:45;;;;;;;33.40;20.48;;;2.90;99.90;;;;;;4980225;28;88578;-74
2023/01/25 00:16:12;;;;;;;37.90;21.92;;;2.80;99.90;;;;;;4979577;28;95158;-74
2023/01/25 00:18:39;;;;;;;32.25;19.20;;;2.90;99.90;;;;;;4962649;28;91899;-74
2023/01/25 00:21:16;;;;;;;36.90;22.40;;;2.80;99.90;;;;;;4963277;28;91600;-74
2023/01/25 00:23:43;;;;;;;32.88;20.35;;;2.80;99.90;;;;;;4997149;28;88548;-74
2023/01/25 00:26:10;;;;;;;35.47;21.50;;;2.80;99.90;;;;;;4997556;28;89142;-74
2023/01/25 00:28:37;;;;;;;33.88;21.05;;;2.80;99.90;;;;;;4997447;28;88877;-74
2023/01/25 00:31:06;;;;;;;30.98;19.30;;;2.80;99.90;;;;;;4963307;28;91461;-74
2023/01/25 00:33:49;;;;;;;29.98;19.35;;;2.80;99.90;;;;;;4996688;28;89002;-74
2023/01/25 00:36:33;;;;;;;35.65;22.27;;;2.80;99.90;;;;;;4997367;28;89276;-74
2023/01/25 00:39:00;;;;;;;36.10;22.02;;;2.80;99.90;;;;;;4979293;28;92447;-74
2023/01/25 00:41:27;;;;;;;38.50;22.50;;;2.80;99.90;;;;;;4979434;28;88532;-74
2023/01/25 00:43:54;;;;;;;35.90;21.70;;;2.80;99.90;;;;;;4979158;28;91210;-74
2023/01/25 00:46:21;;;;;;;30.90;19.35;;;2.80;99.90;;;;;;4979221;28;89703;-74
2023/01/25 00:48:51;;;;;;;42.25;24.15;;;2.70;99.90;;;;;;4962765;28;88919;-74
2023/01/25 00:51:18;;;;;;;34.25;21.38;;;2.70;99.90;;;;;;4979742;28;89232;-74
2023/01/25 00:53:45;;;;;;;33.95;20.85;;;2.80;99.90;;;;;;4996946;28;88467;-74
2023/01/25 00:56:12;;;;;;;35.72;21.48;;;2.70;99.90;;;;;;4978939;28;90507;-74
2023/01/25 00:58:40;;;;;;;33.72;19.63;;;2.70;99.90;;;;;;4963096;28;89487;-74
2023/01/25 01:01:09;;;;;;;33.80;20.00;;;2.70;99.90;;;;;;4979030;28;90303;-74
2023/01/25 01:03:37;;;;;;;33.35;21.20;;;2.70;99.90;;;;;;4978994;28;91489;-74
2023/01/25 01:06:11;;;;;;;37.20;22.33;;;2.70;99.90;;;;;;4978849;28;91271;-74
2023/01/25 01:08:39;;;;;;;39.25;22.75;;;2.80;99.90;;;;;;4996727;28;89446;-74
2023/01/25 01:11:09;;;;;;;39.15;23.05;;;2.80;99.90;;;;;;4978681;28;89639;-74
2023/01/25 01:13:37;;;;;;;35.28;20.75;;;2.80;99.90;;;;;;4979028;28;91563;-74
2023/01/25 01:16:07;;;;;;;38.83;24.00;;;2.70;99.90;;;;;;4978745;28;88784;-74
2023/01/25 01:18:36;;;;;;;36.97;22.40;;;2.70;99.90;;;;;;4978149;28;91922;-73
2023/01/25 01:21:03;;;;;;;41.30;23.20;;;2.70;99.90;;;;;;4978859;28;88954;-74
2023/01/25 01:23:31;;;;;;;39.78;23.38;;;2.60;99.90;;;;;;4996613;28;88599;-74
2023/01/25 01:26:03;;;;;;;41.88;25.42;;;2.60;99.90;;;;;;4978433;28;91335;-74
2023/01/25 01:28:31;;;;;;;34.65;21.00;;;2.60;99.90;;;;;;4962537;28;91812;-74
2023/01/25 01:31:08;;;;;;;41.40;24.38;;;2.50;99.90;;;;;;4978547;28;91732;-74
2023/01/25 01:33:37;;;;;;;37.20;22.85;;;2.50;99.90;;;;;;4962839;28;90890;-74
2023/01/25 01:36:13;;;;;;;36.13;21.83;;;2.50;99.90;;;;;;4978568;28;89338;-73
2023/01/25 01:38:41;;;;;;;33.55;19.15;;;2.50;99.90;;;;;;4978448;28;90677;-73
2023/01/25 01:41:09;;;;;;;34.72;21.58;;;2.40;99.90;;;;;;4978312;28;91705;-73
2023/01/25 01:43:36;;;;;;;35.10;22.25;;;2.40;99.90;;;;;;4978513;28;91348;-73
2023/01/25 01:46:12;;;;;;;38.85;22.90;;;2.40;99.90;;;;;;4997945;28;88822;-73
2023/01/25 01:48:45;;;;;;;39.17;22.97;;;2.40;99.90;;;;;;4982016;28;91987;-73
2023/01/25 01:51:34;;;;;;;39.13;24.60;;;2.50;99.90;;;;;;4981749;28;91306;-73
2023/01/25 01:54:18;;;;;;;40.17;23.85;;;2.40;99.90;;;;;;4981794;28;90929;-73
2023/01/25 01:57:04;;;;;;;36.55;22.40;;;2.50;99.90;;;;;;4981873;28;91259;-73
2023/01/25 01:59:47;;;;;;;;;;;2.40;99.90;;;;;;4982121;28;91943;-72
2023/01/25 02:02:14;;;;;;;35.67;22.50;;;2.30;99.90;;;;;;4982934;28;92079;-73
2023/01/25 02:04:45;;;;;;;38.13;22.27;;;2.30;99.90;;;;;;4981488;28;91757;-72
2023/01/25 02:07:16;;;;;;;42.67;25.08;;;2.40;99.90;;;;;;4981518;28;90222;-73
2023/01/25 02:09:46;;;;;;;39.43;23.77;;;2.40;99.90;;;;;;4981598;28;91309;-72
2023/01/25 02:12:14;;;;;;;41.05;24.00;;;2.40;99.90;;;;;;4981114;28;90467;-73
2023/01/25 02:14:47;;;;;;;38.50;23.52;;;2.40;99.90;;;;;;4999416;28;88716;-74
2023/01/25 02:17:29;;;;;;;38.60;22.75;;;2.50;99.90;;;;;;4981678;28;89146;-74
2023/01/25 02:20:12;;;;;;;37.85;22.75;;;2.50;99.90;;;;;;4981384;28;91929;-73
2023/01/25 02:23:01;;;;;;;38.85;24.20;;;2.50;99.90;;;;;;4981077;28;91826;-73
2023/01/25 02:25:28;;;;;;;37.90;23.15;;;2.50;99.90;;;;;;4981188;28;92098;-73
2023/01/25 02:28:05;;;;;;;39.20;24.80;;;2.50;99.90;;;;;;4998860;28;89725;-74
2023/01/25 02:30:32;;;;;;;38.10;24.13;;;2.60;99.90;;;;;;4981322;28;91962;-74
2023/01/25 02:33:00;;;;;;;41.03;24.55;;;2.50;99.90;;;;;;4964822;28;88968;-73
2023/01/25 02:35:50;;;;;;;39.75;24.88;;;2.60;99.90;;;;;;4981555;28;88710;-73
2023/01/25 02:38:20;;;;;;;40.83;24.50;;;2.70;99.90;;;;;;4980711;28;91364;-74
2023/01/25 02:40:56;;;;;;;39.63;25.20;;;2.60;99.90;;;;;;4999203;28;88596;-74
2023/01/25 02:43:27;;;;;;;;;;;2.60;99.90;;;;;;4981449;28;91521;-74
2023/01/25 02:46:16;;;;;;;40.92;24.20;;;2.60;99.90;;;;;;4999878;28;91086;-74
2023/01/25 02:48:44;;;;;;;41.67;25.48;;;2.60;99.90;;;;;;4980981;28;89788;-74
2023/01/25 02:51:11;;;;;;;40.88;25.05;;;2.60;99.90;;;;;;4980727;28;91778;-74
2023/01/25 02:53:40;;;;;;;41.90;24.15;;;2.60;99.90;;;;;;4998651;28;89125;-74
2023/01/25 02:56:07;;;;;;;42.83;24.98;;;2.60;99.90;;;;;;4979917;28;91106;-74
2023/01/25 02:58:35;;;;;;;46.30;27.83;;;2.70;99.90;;;;;;4997350;28;91942;-74
2023/01/25 03:01:02;;;;;;;42.78;26.17;;;2.70;99.90;;;;;;4980634;28;90719;-74
2023/01/25 03:03:29;;;;;;;42.15;25.65;;;2.70;99.90;;;;;;4964499;28;91437;-74
2023/01/25 03:05:56;;;;;;;39.63;24.60;;;2.70;99.90;;;;;;4980578;28;90707;-74
2023/01/25 03:08:24;;;;;;;42.88;25.95;;;2.70;99.90;;;;;;4964557;28;91133;-74
2023/01/25 03:10:59;;;;;;;39.67;25.55;;;2.70;99.90;;;;;;4964952;28;92092;-74
2023/01/25 03:13:29;;;;;;;40.20;25.35;;;2.70;99.90;;;;;;4980616;28;91694;-74
2023/01/25 03:16:04;;;;;;;37.88;23.85;;;2.70;99.90;;;;;;4964442;28;91157;-74
2023/01/25 03:18:33;;;;;;;37.60;24.05;;;2.70;99.90;;;;;;4979810;28;90810;-74
2023/01/25 03:21:09;;;;;;;40.50;24.35;;;2.70;99.90;;;;;;4963760;28;91866;-74
2023/01/25 03:23:38;;;;;;;39.47;23.98;;;2.70;99.90;;;;;;4965410;28;88898;-74
2023/01/25 03:26:16;;;;;;;39.08;24.75;;;2.70;99.90;;;;;;4964235;28;91189;-74
2023/01/25 03:29:04;;;;;;;39.47;23.08;;;2.60;99.90;;;;;;4980131;28;90470;-74
2023/01/25 03:31:33;;;;;;;38.17;23.73;;;2.60;99.90;;;;;;4979956;28;90535;-74
2023/01/25 03:34:00;;;;;;;38.72;24.38;;;2.60;99.90;;;;;;4964182;28;91615;-74
2023/01/25 03:36:32;;;;;;;37.22;22.80;;;2.60;99.90;;;;;;4964975;28;90901;-74
2023/01/25 03:38:59;;;;;;;40.00;23.88;;;2.60;99.90;;;;;;4980123;28;91578;-74
2023/01/25 03:41:26;;;;;;;37.58;22.73;;;2.60;99.90;;;;;;4963576;28;92335;-73
2023/01/25 03:43:56;;;;;;;37.33;23.38;;;2.60;99.90;;;;;;4979886;28;91341;-73
2023/01/25 03:46:23;;;;;;;38.67;24.50;;;2.60;99.90;;;;;;4963562;28;91058;-73
2023/01/25 03:48:50;;;;;;;40.85;25.83;;;2.60;99.90;;;;;;4963901;28;89709;-73
2023/01/25 03:51:17;;;;;;;42.97;26.20;;;2.60;99.90;;;;;;4963718;28;92547;-73
2023/01/25 03:53:44;;;;;;;38.58;23.80;;;2.50;99.90;;;;;;4963901;28;90698;-73
2023/01/25 03:56:19;;;;;;;43.03;26.90;;;2.50;99.90;;;;;;4979751;28;90881;-74
2023/01/25 03:58:56;;;;;;;40.08;25.02;;;2.50;99.90;;;;;;4979721;28;91325;-73
2023/01/25 04:01:24;;;;;;;40.25;25.10;;;2.50;99.90;;;;;;4963941;28;89713;-73
2023/01/25 04:03:51;;;;;;;44.58;26.63;;;2.50;99.90;;;;;;4963744;28;89908;-73
2023/01/25 04:06:18;;;;;;;41.78;25.45;;;2.50;99.90;;;;;;4979553;28;91064;-73
2023/01/25 04:08:45;;;;;;;37.55;22.63;;;2.50;99.90;;;;;;4962432;28;91878;-73
2023/01/25 04:11:13;;;;;;;33.88;21.48;;;2.50;99.90;;;;;;4979671;28;89363;-73
2023/01/25 04:13:42;;;;;;;40.88;25.50;;;2.50;99.90;;;;;;4979612;28;91439;-74
2023/01/25 04:16:13;;;;;;;40.47;24.42;;;2.40;99.90;;;;;;4979419;28;89540;-73
2023/01/25 04:18:58;;;;;;;43.95;26.33;;;2.50;99.90;;;;;;4968257;28;88661;-73
2023/01/25 04:21:26;;;;;;;43.40;26.63;;;2.50;99.90;;;;;;4979279;28;92036;-73
2023/01/25 04:23:54;;;;;;;45.42;25.88;;;2.50;99.90;;;;;;4963462;28;91364;-72
2023/01/25 04:26:22;;;;;;;43.60;26.25;;;2.50;99.90;;;;;;4979479;28;90689;-72
2023/01/25 04:28:53;;;;;;;45.08;25.27;;;2.50;99.90;;;;;;4963891;28;91644;-73
2023/01/25 04:31:21;;;;;;;45.17;27.58;;;2.50;99.90;;;;;;4979560;28;89697;-72
2023/01/25 04:33:48;;;;;;;41.58;25.77;;;2.60;99.90;;;;;;4979240;28;91722;-73
2023/01/25 04:36:18;;;;;;;45.00;26.20;;;2.60;99.90;;;;;;4963394;28;90620;-73
2023/01/25 04:38:46;;;;;;;45.53;27.13;;;2.60;99.90;;;;;;4963135;28;91119;-73
2023/01/25 04:41:14;;;;;;;44.40;27.25;;;2.60;99.90;;;;;;4978957;28;91996;-72
2023/01/25 04:43:43;;;;;;;45.00;26.75;;;2.60;99.90;;;;;;4963265;28;90741;-73
2023/01/25 04:46:10;;;;;;;47.15;27.63;;;2.60;99.90;;;;;;4979134;28;91006;-72
2023/01/25 04:48:38;;;;;;;47.10;27.75;;;2.60;99.90;;;;;;4979110;28;91108;-73
2023/01/25 04:51:09;;;;;;;46.83;28.55;;;2.60;99.90;;;;;;4979430;28;91458;-73
2023/01/25 04:53:36;;;;;;;45.05;27.42;;;2.60;99.90;;;;;;4962608;28;92387;-73
2023/01/25 04:56:05;;;;;;;47.88;29.20;;;2.60;99.90;;;;;;4979101;28;91038;-73
2023/01/25 04:58:40;;;;;;;45.30;27.55;;;2.60;99.90;;;;;;4948583;28;92014;-74
2023/01/25 05:01:07;;;;;;;45.33;27.90;;;2.70;99.90;;;;;;4978854;28;91849;-73
2023/01/25 05:03:34;;;;;;;45.17;27.50;;;2.70;99.90;;;;;;4979118;28;88987;-74
2023/01/25 05:06:03;;;;;;;48.65;27.77;;;2.70;99.90;;;;;;4979101;28;89332;-74
2023/01/25 05:08:30;;;;;;;48.20;28.77;;;2.70;99.90;;;;;;4979127;28;88872;-74
2023/01/25 05:11:00;;;;;;;46.45;27.88;;;2.70;99.90;;;;;;4978846;28;92244;-74
2023/01/25 05:13:39;;;;;;;50.45;29.90;;;2.70;99.90;;;;;;4964134;28;91110;-74
2023/01/25 05:16:15;;;;;;;52.95;29.50;;;2.70;99.90;;;;;;4963524;28;90772;-73
2023/01/25 05:18:42;;;;;;;47.15;27.13;;;2.70;99.90;;;;;;4978404;28;91215;-74
2023/01/25 05:24:06;;;;;;;51.22;30.10;;;2.60;99.90;;;;;;4981934;28;90025;-73
2023/01/25 05:29:19;;;;;;;51.22;29.70;;;2.60;99.90;;;;;;4968244;28;90747;-73
2023/01/25 05:31:58;;;;;;;50.88;28.58;;;2.60;99.90;;;;;;4967536;28;91735;-74
2023/01/25 05:34:25;;;;;;;50.28;28.50;;;2.60;99.90;;;;;;4981826;28;91728;-74
2023/01/25 05:36:53;;;;;;;50.55;28.83;;;2.60;99.90;;;;;;4965903;28;91011;-74
2023/01/25 05:39:20;;;;;;;51.15;29.35;;;2.60;99.90;;;;;;4982107;28;88904;-74
2023/01/25 05:41:48;;;;;;;48.33;28.15;;;2.60;99.90;;;;;;4982265;28;91866;-74
2023/01/25 05:44:15;;;;;;;49.65;29.25;;;2.60;99.90;;;;;;4981961;28;91729;-73
2023/01/25 05:46:45;;;;;;;48.67;28.10;;;2.70;99.90;;;;;;4981885;28;91071;-74
2023/01/25 05:49:14;;;;;;;47.15;28.65;;;2.70;99.90;;;;;;4981712;28;91812;-74
2023/01/25 05:51:42;;;;;;;49.13;29.15;;;2.70;99.90;;;;;;4999798;28;89420;-74
2023/01/25 05:54:15;;;;;;;49.10;29.30;;;2.70;99.90;;;;;;4965739;28;91742;-73
2023/01/25 05:56:49;;;;;;;48.10;27.08;;;2.70;99.90;;;;;;4998519;28;89703;-73
2023/01/25 05:59:17;;;;;;;47.85;27.73;;;2.70;99.90;;;;;;4981560;28;91236;-74
2023/01/25 06:01:45;;;;;;;52.15;28.60;;;2.70;99.90;;;;;;4965348;28;92549;-74
2023/01/25 06:04:14;;;;;;;48.47;28.08;;;2.60;99.90;;;;;;4965351;28;90439;-74
2023/01/25 06:06:42;;;;;;;50.28;29.40;;;2.60;99.90;;;;;;4999658;28;88480;-73
2023/01/25 06:09:13;;;;;;;49.42;27.77;;;2.60;99.90;;;;;;4981446;28;91324;-73
2023/01/25 06:11:43;;;;;;;49.28;28.80;;;2.60;99.90;;;;;;4981353;28;91819;-73
2023/01/25 06:14:11;;;;;;;45.92;27.35;;;2.60;99.90;;;;;;4965071;28;90221;-73
2023/01/25 06:16:39;;;;;;;46.85;27.65;;;2.60;99.90;;;;;;4981286;28;90692;-74
2023/01/25 06:19:24;;;;;;;48.70;27.08;;;2.60;99.90;;;;;;4999543;28;88787;-73
2023/01/25 06:22:14;;;;;;;49.97;27.73;;;2.60;99.90;;;;;;4979346;28;90681;-74
2023/01/25 06:24:41;;;;;;;49.95;28.42;;;2.60;99.90;;;;;;4999273;28;89126;-72
2023/01/25 06:27:09;;;;;;;49.75;28.38;;;2.60;99.90;;;;;;4999336;28;88481;-73
2023/01/25 06:29:36;;;;;;;54.25;29.45;;;2.60;99.90;;;;;;4981215;28;89019;-73
2023/01/25 06:32:03;;;;;;;50.08;28.25;;;2.60;99.90;;;;;;4981118;28;89384;-73
2023/01/25 06:34:30;;;;;;;53.30;29.75;;;2.60;99.90;;;;;;4981072;28;91611;-73
2023/01/25 06:36:57;;;;;;;49.63;28.13;;;2.60;99.90;;;;;;4964788;28;91239;-73
2023/01/25 06:39:24;;;;;;;48.10;26.83;;;2.70;99.90;;;;;;4998903;28;89661;-74
2023/01/25 06:41:51;;;;;;;49.58;28.00;;;2.60;99.90;;;;;;4981472;28;89636;-73
2023/01/25 06:44:18;;;;;;;49.38;27.92;;;2.70;99.90;;;;;;4980874;28;91738;-74
2023/01/25 06:46:45;;;;;;;50.63;28.35;;;2.60;99.90;;;;;;4981217;28;88977;-73
2023/01/25 06:49:12;;;;;;;49.88;28.48;;;2.60;99.90;;;;;;4981297;28;89319;-73
2023/01/25 06:51:40;;;;;;;53.13;28.27;;;2.70;99.90;;;;;;4980601;28;89610;-74
2023/01/25 06:54:06;;;;;;;49.28;27.92;;;2.60;99.90;;;;;;4981305;28;88995;-74
2023/01/25 06:56:33;;;;;;;44.50;25.52;;;2.60;99.90;;;;;;4981217;28;88524;-74
2023/01/25 06:59:00;;;;;;;44.70;26.35;;;2.60;99.90;;;;;;4980564;28;91720;-74
2023/01/25 07:01:29;;;;;;;48.92;28.25;;;2.60;99.90;;;;;;4980851;28;92048;-74
2023/01/25 07:03:58;;;;;;;48.65;26.45;;;2.60;99.90;;;;;;4980417;28;89392;-73
2023/01/25 07:06:30;;;;;;;43.85;25.38;;;2.60;99.90;;;;;;4980399;28;90115;-74
2023/01/25 07:09:02;;;;;;;47.03;25.55;;;2.60;99.90;;;;;;4998777;28;89013;-74
2023/01/25 07:11:29;;;;;;;41.72;25.17;;;2.60;99.90;;;;;;4998506;28;89542;-74
2023/01/25 07:13:56;;;;;;;40.28;23.77;;;2.60;99.90;;;;;;4980703;28;91817;-74
2023/01/25 07:16:23;;;;;;;47.05;24.70;;;2.60;99.90;;;;;;4998343;28;94616;-74
2023/01/25 07:18:50;;;;;;;42.00;24.50;;;2.60;99.90;;;;;;4995785;28;93510;-73
2023/01/25 07:21:20;;;;;;;41.33;24.23;;;2.60;99.90;;;;;;4979032;28;92965;-73
2023/01/25 07:23:50;;;;;;;40.90;24.25;;;2.60;99.90;;;;;;4996082;28;92557;-73
2023/01/25 07:26:23;;;;;;;40.28;23.48;;;2.70;99.90;;;;;;4978932;28;92485;-74
2023/01/25 07:28:51;;;;;;;39.83;23.23;;;2.70;99.90;;;;;;4976572;28;96903;-73
2023/01/25 07:31:19;;;;;;;40.55;23.85;;;2.70;99.90;;;;;;4995972;28;95829;-74
2023/01/25 07:33:48;;;;;;;40.90;23.50;;;2.60;99.90;;;;;;4977843;28;92470;-75
2023/01/25 07:36:15;;;;;;;37.50;23.67;;;2.60;99.90;;;;;;4978616;28;92577;-74
2023/01/25 07:38:43;;;;;;;39.15;23.75;;;2.60;99.90;;;;;;4978053;28;93208;-73
2023/01/25 07:41:10;;;;;;;40.50;22.88;;;2.60;99.90;;;;;;4996169;28;93198;-74
2023/01/25 07:43:37;;;;;;;40.15;24.33;;;2.70;99.90;;;;;;4961650;28;93461;-74
2023/01/25 07:46:06;;;;;;;39.28;22.55;;;2.70;99.90;;;;;;4978509;28;91647;-74
2023/01/25 07:48:34;;;;;;;39.38;23.35;;;2.70;99.90;;;;;;4977920;28;95706;-75
2023/01/25 07:51:18;;;;;;;46.35;25.20;;;2.60;99.90;;;;;;4977707;28;99394;-74
2023/01/25 07:53:45;;;;;;;41.70;23.85;;;2.70;99.90;;;;;;4994930;28;95107;-74
2023/01/25 07:56:12;;;;;;;42.03;24.98;;;2.60;99.90;;;;;;4961557;28;92601;-74
2023/01/25 07:58:39;;;;;;;43.65;22.85;;;2.60;99.90;;;;;;4995285;28;97753;-74
2023/01/25 08:01:18;;;;;;;41.25;24.20;;;2.60;99.90;;;;;;4978227;28;93331;-74
2023/01/25 08:03:46;;;;;;;39.22;23.20;;;2.60;99.90;;;;;;4995647;28;92531;-74
2023/01/25 08:06:13;;;;;;;44.13;25.35;;;2.60;99.90;;;;;;4978096;28;92502;-74
2023/01/25 08:08:44;;;;;;;43.65;24.25;;;2.60;99.90;;;;;;4977567;28;93011;-74
2023/01/25 08:11:12;;;;;;;38.05;22.52;;;2.70;99.90;;;;;;4977792;28;96205;-74
2023/01/25 08:13:39;;;;;;;43.53;24.75;;;2.70;99.90;;;;;;4995364;28;92493;-74
2023/01/25 08:16:06;;;;;;;44.20;25.08;;;2.70;99.90;;;;;;4961429;28;92547;-74
2023/01/25 08:18:33;;;;;;;42.97;24.33;;;2.70;99.90;;;;;;4993680;28;95936;-75
2023/01/25 08:21:02;;;;;;;42.47;24.40;;;2.70;99.90;;;;;;4977134;28;98330;-74
2023/01/25 08:23:29;;;;;;;40.78;23.27;;;2.70;99.90;;;;;;4995195;28;92386;-74
2023/01/25 08:26:07;;;;;;;40.65;23.38;;;2.70;99.90;;;;;;4977231;28;92493;-74
2023/01/25 08:28:34;;;;;;;40.33;24.50;;;2.70;99.90;;;;;;4962147;28;93553;-74
2023/01/25 08:31:07;;;;;;;45.45;25.00;;;2.70;99.90;;;;;;4995037;28;93141;-75
2023/01/25 08:33:34;;;;;;;41.92;23.48;;;2.70;99.90;;;;;;4995461;28;92486;-74
2023/01/25 08:36:01;;;;;;;43.80;25.15;;;2.70;99.90;;;;;;4944941;28;91779;-74
2023/01/25 08:38:28;;;;;;;44.50;24.80;;;2.70;99.90;;;;;;4961090;28;94833;-74
2023/01/25 08:40:55;;;;;;;45.95;25.40;;;2.70;99.90;;;;;;4994846;28;93137;-74
2023/01/25 08:43:22;;;;;;;44.65;25.05;;;2.70;99.90;;;;;;4960099;28;94829;-74
2023/01/25 08:45:56;;;;;;;44.58;26.55;;;2.70;99.90;;;;;;4994885;28;92480;-74
2023/01/25 08:48:23;;;;;;;47.35;26.27;;;2.80;99.90;;;;;;4995083;28;93584;-74
2023/01/25 08:50:50;;;;;;;47.17;26.25;;;2.70;99.90;;;;;;4960370;28;96186;-74
2023/01/25 08:53:17;;;;;;;45.67;26.23;;;2.70;99.90;;;;;;4977115;28;93092;-74
2023/01/25 08:55:45;;;;;;;42.97;25.52;;;2.70;99.90;;;;;;4976420;28;92572;-74
2023/01/25 08:58:14;;;;;;;45.90;25.00;;;2.70;99.90;;;;;;4977191;28;93178;-74
2023/01/25 09:00:43;;;;;;;42.05;24.58;;;2.70;99.90;;;;;;4995050;28;93096;-74
2023/01/25 09:03:10;;;;;;;41.78;24.42;;;2.70;99.90;;;;;;4994753;28;92373;-74
2023/01/25 09:05:38;;;;;;;42.22;24.05;;;2.70;99.90;;;;;;4994898;28;92388;-74
2023/01/25 09:08:07;;;;;;;45.67;25.02;;;2.70;99.90;;;;;;4993242;28;95738;-74
2023/01/25 09:10:36;;;;;;;48.22;25.98;;;2.70;99.90;;;;;;4977643;28;95562;-74
2023/01/25 09:13:03;;;;;;;43.90;24.75;;;2.70;99.90;;;;;;4994693;28;92424;-74
2023/01/25 09:15:33;;;;;;;41.90;24.75;;;2.70;99.90;;;;;;4994508;28;92362;-74
2023/01/25 09:18:00;;;;;;;42.22;23.27;;;2.70;99.90;;;;;;4975531;28;97938;-74
2023/01/25 09:20:27;;;;;;;43.35;24.63;;;2.80;99.90;;;;;;4994559;28;93119;-74
2023/01/25 09:22:55;;;;;;;38.67;23.35;;;2.80;99.90;;;;;;4977061;28;92529;-74
2023/01/25 09:25:22;;;;;;;43.25;24.67;;;2.80;99.90;;;;;;4994958;28;91725;-74
2023/01/25 09:27:50;;;;;;;42.90;24.40;;;2.90;99.90;;;;;;4960019;28;96021;-74
2023/01/25 09:30:17;;;;;;;41.45;24.23;;;2.90;99.90;;;;;;4994500;28;93276;-74
2023/01/25 09:32:50;;;;;;;41.97;25.55;;;2.90;99.90;;;;;;4975357;28;95380;-74
2023/01/25 09:35:17;;;;;;;38.85;23.17;;;2.90;99.90;;;;;;4994754;28;92482;-74
2023/01/25 09:37:44;;;;;;;43.42;25.15;;;3.00;99.90;;;;;;4994217;28;93391;-74
2023/01/25 09:40:19;;;;;;;40.53;23.35;;;3.00;99.90;;;;;;4994156;28;93282;-75
2023/01/25 09:43:04;;;;;;;42.55;25.33;;;3.10;99.90;;;;;;4994444;28;92502;-74
2023/01/25 09:45:33;;;;;;;41.55;24.33;;;3.10;99.90;;;;;;4976558;28;92545;-74
2023/01/25 09:48:03;;;;;;;39.30;22.70;;;3.00;99.90;;;;;;4994046;28;93325;-75
2023/01/25 09:50:40;;;;;;;40.92;23.27;;;3.10;99.90;;;;;;4976717;28;93011;-74
2023/01/25 09:53:52;;;;;;;42.67;24.05;;;3.10;99.90;;;;;;4994252;28;92469;-75
2023/01/25 09:56:26;;;;;;;45.05;23.90;;;3.00;99.90;;;;;;4916997;28;92567;-74
2023/01/25 09:59:00;;;;;;;41.53;23.45;;;3.00;99.90;;;;;;4987929;28;95597;-74
2023/01/25 10:01:33;;;;;;;42.85;24.48;;;3.00;99.90;;;;;;4994193;28;95473;-74
2023/01/25 10:04:23;;;;;;;41.85;24.65;;;3.10;99.90;;;;;;4994354;28;92963;-74
2023/01/25 10:07:00;;;;;;;39.90;22.77;;;3.10;99.90;;;;;;4996014;28;93067;-74
2023/01/25 10:09:56;;;;;;;39.15;22.65;;;3.10;99.90;;;;;;4997569;28;93160;-74
2023/01/25 10:12:25;;;;;;;39.95;22.13;;;3.10;99.90;;;;;;4997605;28;92493;-74
2023/01/25 10:14:53;;;;;;;36.55;21.45;;;3.00;99.90;;;;;;4997466;28;92326;-75
2023/01/25 10:17:39;;;;;;;38.30;22.52;;;3.00;99.90;;;;;;4997920;28;91685;-75
2023/01/25 10:20:15;;;;;;;36.60;21.20;;;3.10;99.90;;;;;;4963078;28;93350;-73
2023/01/25 10:23:02;;;;;;;39.03;22.90;;;3.00;99.90;;;;;;4979252;28;95752;-73
2023/01/25 10:25:44;;;;;;;42.55;23.05;;;3.00;99.90;;;;;;4977542;28;94820;-73
2023/01/25 10:28:43;;;;;;;41.47;23.38;;;3.10;99.90;;;;;;4979108;28;92473;-73
2023/01/25 10:31:17;;;;;;;44.65;23.98;;;3.00;99.90;;;;;;4966201;28;92493;-73
2023/01/25 10:33:46;;;;;;;38.15;21.83;;;3.00;99.90;;;;;;4978955;28;95694;-73
2023/01/25 10:36:20;;;;;;;41.47;24.02;;;3.00;99.90;;;;;;4962810;28;92370;-73
2023/01/25 10:38:48;;;;;;;43.77;25.50;;;3.10;99.90;;;;;;4979194;28;92517;-73
2023/01/25 10:41:17;;;;;;;40.67;23.33;;;3.10;99.90;;;;;;4996321;28;99799;-73
2023/01/25 10:43:45;;;;;;;42.13;23.48;;;3.10;99.90;;;;;;4979584;28;93057;-73
2023/01/25 10:46:25;;;;;;;43.95;24.15;;;3.10;99.90;;;;;;4996857;28;93576;-74
2023/01/25 10:48:52;;;;;;;38.85;23.70;;;3.20;99.90;;;;;;4978997;28;92607;-74
2023/01/25 10:51:31;;;;;;;43.72;24.27;;;3.10;99.90;;;;;;4961127;28;98294;-74
2023/01/25 10:54:03;;;;;;;41.53;23.25;;;3.20;99.90;;;;;;4996806;28;94359;-74
2023/01/25 10:56:38;;;;;;;38.67;22.67;;;3.20;99.90;;;;;;4997134;28;92508;-74
2023/01/25 10:59:26;;;;;;;40.72;22.65;;;3.20;99.90;;;;;;4978698;28;92520;-74
2023/01/25 11:01:53;;;;;;;42.50;23.60;;;3.10;99.90;;;;;;4996768;28;93252;-74
2023/01/25 11:04:38;;;;;;;41.15;23.02;;;3.10;99.90;;;;;;4996502;28;93206;-74
2023/01/25 11:07:27;;;;;;;38.88;21.95;;;3.10;99.90;;;;;;4996828;28;92410;-73
2023/01/25 11:09:55;;;;;;;37.58;21.65;;;3.10;99.90;;;;;;4997305;28;91594;-73
2023/01/25 11:12:22;;;;;;;39.20;21.42;;;3.10;99.90;;;;;;4996104;28;93183;-74
2023/01/25 11:14:49;;;;;;;35.65;20.90;;;3.10;99.90;;;;;;4962258;28;95731;-74
2023/01/25 11:17:24;;;;;;;43.78;24.58;;;3.10;99.90;;;;;;4960642;28;94975;-74
2023/01/25 11:20:19;;;;;;;35.28;19.95;;;3.20;99.90;;;;;;4978432;28;92560;-74
2023/01/25 11:22:55;;;;;;;37.85;22.20;;;3.20;99.90;;;;;;4978589;28;93067;-74
2023/01/25 11:25:27;;;;;;;39.72;22.98;;;3.20;99.90;;;;;;4978040;28;95520;-73
2023/01/25 11:28:16;;;;;;;38.63;21.95;;;3.20;99.90;;;;;;4978445;28;92705;-73
2023/01/25 11:30:45;;;;;;;31.42;18.25;;;3.20;99.90;;;;;;4978739;28;92518;-73
2023/01/25 11:33:14;;;;;;;35.17;20.00;;;3.20;99.90;;;;;;4961838;28;92472;-73
2023/01/25 11:36:04;;;;;;;37.13;21.55;;;3.20;99.90;;;;;;4996306;28;93090;-73
2023/01/25 11:38:31;;;;;;;35.67;20.10;;;3.20;99.90;;;;;;4971520;28;92515;-73
2023/01/25 11:41:23;;;;;;;38.20;21.85;;;3.20;99.90;;;;;;4996115;28;92423;-74
2023/01/25 11:44:17;;;;;;;36.08;20.55;;;3.30;99.90;;;;;;4994768;28;95718;-74
2023/01/25 11:46:56;;;;;;;35.55;20.45;;;3.30;99.90;;;;;;4996136;28;95578;-74
2023/01/25 11:50:05;;;;;;;37.35;20.77;;;3.20;99.90;;;;;;4977700;28;92459;-73
2023/01/25 11:52:51;;;;;;;36.20;20.75;;;3.20;99.90;;;;;;4977977;28;92502;-74
2023/01/25 11:55:53;;;;;;;41.58;22.08;;;3.20;99.90;;;;;;4995820;28;93178;-73
2023/01/25 11:58:49;;;;;;;38.17;20.83;;;3.10;99.90;;;;;;4955014;28;95831;-73
2023/01/25 12:01:51;;;;;;;34.13;20.92;;;3.20;99.90;;;;;;4995687;28;92453;-73
2023/01/25 12:04:47;;;;;;;40.85;22.05;;;3.20;99.90;;;;;;4978119;28;91807;-73
2023/01/25 12:07:29;;;;;;;36.50;21.13;;;3.20;99.90;;;;;;4977349;28;95927;-74
2023/01/25 12:09:59;;;;;;;38.38;21.38;;;3.20;99.90;;;;;;4977679;28;95396;-74
2023/01/25 12:12:35;;;;;;;36.88;21.63;;;3.20;99.90;;;;;;4994453;28;94807;-74
2023/01/25 12:15:17;;;;;;;36.92;20.90;;;3.20;99.90;;;;;;4995683;28;92790;-74
2023/01/25 12:18:25;;;;;;;35.67;20.48;;;3.20;99.90;;;;;;4995144;28;93493;-73
2023/01/25 12:21:03;;;;;;;36.47;20.38;;;3.20;99.90;;;;;;4925443;28;93106;-74
2023/01/25 12:24:13;;;;;;;34.60;20.45;;;3.20;99.90;;;;;;4995442;28;92858;-74
2023/01/25 12:27:02;;;;;;;37.28;20.10;;;3.30;99.90;;;;;;4978001;28;92590;-74
2023/01/25 12:29:44;;;;;;;33.38;19.17;;;3.30;99.90;;;;;;4976275;28;96065;-74
2023/01/25 12:32:21;;;;;;;35.60;19.40;;;3.30;99.90;;;;;;4995724;28;93911;-73
2023/01/25 12:34:57;;;;;;;33.85;19.80;;;3.30;99.90;;;;;;4977901;28;92563;-74
2023/01/25 12:37:31;;;;;;;31.05;18.20;;;3.30;99.90;;;;;;4977525;28;92486;-74
2023/01/25 12:40:04;;;;;;;34.55;18.98;;;3.20;99.90;;;;;;4993823;28;95651;-74
2023/01/25 12:42:42;;;;;;;36.25;20.98;;;3.30;99.90;;;;;;4960558;28;98177;-75
2023/01/25 12:45:21;;;;;;;37.03;19.95;;;3.30;99.90;;;;;;4977669;28;92514;-75
2023/01/25 12:47:59;;;;;;;31.88;19.17;;;3.30;99.90;;;;;;4977295;28;92464;-75
2023/01/25 12:50:40;;;;;;;39.10;21.88;;;3.30;99.90;;;;;;4960712;28;94023;-74
2023/01/25 12:53:37;;;;;;;39.05;20.63;;;3.30;99.90;;;;;;4995193;28;93270;-75
2023/01/25 12:56:13;;;;;;;37.63;21.17;;;3.20;99.90;;;;;;4995053;28;92995;-75
2023/01/25 12:59:17;;;;;;;39.35;21.10;;;3.20;99.90;;;;;;4995642;28;91691;-74
2023/01/25 13:01:53;;;;;;;38.08;21.40;;;3.20;99.90;;;;;;4994690;28;93651;-74
2023/01/25 13:04:59;;;;;;;38.42;20.83;;;3.10;99.90;;;;;;4976881;28;95839;-74
2023/01/25 13:07:36;;;;;;;45.78;22.73;;;3.20;99.90;;;;;;4980608;28;95706;-73
2023/01/25 13:10:26;;;;;;;44.80;24.13;;;3.20;99.90;;;;;;4995037;28;92989;-74
2023/01/25 13:12:55;;;;;;;43.08;22.75;;;3.20;99.90;;;;;;4985085;28;92376;-74